Time;durP1;ratioP1;P1;durP2;ratioP2;P2;SDS_P1;SDS_P2;PMS_P1;PMS_P2;Temp;Humidity;BMP_temperature;BMP_pressure;BME280_temperature;BME280_humidity;BME280_pressure;Samples;Min_cycle;Max_cycle;Signal;HPM_P1;HPM_P2
2023/04/29 00:00:14;;;;;;;;;;;;;;;9.52;51.00;100703.09;10668359;27;19923;-71
2023/04/29 00:05:16;;;;;;;;;;;;;;;9.15;52.60;100707.97;10697673;27;19923;-71
2023/04/29 00:10:18;;;;;;;;;;;;;;;9.10;53.10;100703.31;10667862;27;19924;-71
2023/04/29 00:15:20;;;;;;;;;;;;;;;9.18;52.93;100701.94;10657164;27;19923;-72
2023/04/29 00:20:23;;;;;;;;;;;;;;;9.30;53.16;100702.53;10672018;27;19927;-72
2023/04/29 00:25:25;;;;;;;;;;;;;;;9.17;54.40;100709.31;10680149;27;19923;-72
2023/04/29 00:30:27;;;;;;;;;;;;;;;9.28;54.38;100702.78;10667388;27;19923;-72
2023/04/29 00:35:30;;;;;;;;;;;;;;;9.13;55.28;100699.19;10681887;27;19928;-73
2023/04/29 00:40:32;;;;;;;;;;;;;;;9.10;56.18;100705.22;10670681;27;19935;-73
2023/04/29 00:45:34;;;;;;;;;;;;;;;9.26;56.21;100704.97;10650248;27;19923;-73
2023/04/29 00:50:36;;;;;;;;;;;;;;;8.98;57.68;100708.19;10665785;27;19934;-72
2023/04/29 00:55:38;;;;;;;;;;;;;;;9.10;58.04;100700.56;10663602;27;19949;-72
2023/04/29 01:00:40;;;;;;;;;;;;;;;8.27;59.30;100710.56;10653629;27;20320;-72
2023/04/29 01:05:44;;;;;;;;;;;;;;;8.73;58.87;100704.28;10651754;27;19934;-72
2023/04/29 01:11:15;;;;;;;;;;;;;;;9.08;58.32;100708.22;10640580;27;19923;-72
2023/04/29 01:16:23;;;;;;;;;;;;;;;8.00;60.22;100706.03;10641784;27;20557;-72
2023/04/29 01:21:25;;;;;;;;;;;;;;;8.40;60.14;100699.19;10642105;27;19935;-72
2023/04/29 01:26:27;;;;;;;;;;;;;;;7.91;60.35;100702.13;10612631;27;19946;-73
2023/04/29 01:31:50;;;;;;;;;;;;;;;7.83;62.37;100710.81;10639288;27;19923;-72
2023/04/29 01:37:09;;;;;;;;;;;;;;;8.58;60.40;100703.38;10611521;27;19923;-73
2023/04/29 01:42:16;;;;;;;;;;;;;;;8.57;60.23;100697.09;10625293;27;19945;-72
2023/04/29 01:47:18;;;;;;;;;;;;;;;7.78;61.22;100708.00;10657915;27;19924;-73
2023/04/29 01:52:27;;;;;;;;;;;;;;;7.78;62.23;100706.09;10641976;27;19923;-72
2023/04/29 01:57:31;;;;;;;;;;;;;;;7.37;63.77;100715.84;10657890;27;19934;-72
2023/04/29 02:02:47;;;;;;;;;;;;;;;7.34;64.10;100708.19;10635412;27;19930;-72
2023/04/29 02:08:22;;;;;;;;;;;;;;;7.29;64.08;100712.75;10664401;27;19929;-72
2023/04/29 02:13:27;;;;;;;;;;;;;;;7.50;64.21;100715.44;10661651;27;20389;-72
2023/04/29 02:18:30;;;;;;;;;;;;;;;7.69;64.04;100704.94;10633098;27;19923;-72
2023/04/29 02:23:33;;;;;;;;;;;;;;;8.31;61.76;100704.28;10625605;27;19923;-72
2023/04/29 02:28:35;;;;;;;;;;;;;;;8.15;62.19;100697.06;10636578;27;19923;-72
2023/04/29 02:33:40;;;;;;;;;;;;;;;7.95;62.43;100700.50;10627357;27;19942;-72
2023/04/29 02:38:44;;;;;;;;;;;;;;;7.86;63.06;100697.44;10656660;27;19923;-72
2023/04/29 02:43:51;;;;;;;;;;;;;;;8.33;62.15;100701.28;10635224;27;19930;-72
2023/04/29 02:48:53;;;;;;;;;;;;;;;8.62;61.91;100694.38;10599492;27;19950;-72
2023/04/29 02:54:02;;;;;;;;;;;;;;;8.78;61.61;100692.53;10638977;27;19923;-72
2023/04/29 02:59:17;;;;;;;;;;;;;;;9.23;60.57;100699.22;10637917;27;19923;-72
2023/04/29 03:04:20;;;;;;;;;;;;;;;9.45;59.18;100696.25;10641341;27;20308;-72
2023/04/29 03:09:23;;;;;;;;;;;;;;;9.28;59.97;100699.22;10660714;27;19923;-72
2023/04/29 03:14:35;;;;;;;;;;;;;;;9.48;58.94;100696.53;10664270;27;19983;-72
2023/04/29 03:19:37;;;;;;;;;;;;;;;8.99;60.30;100699.69;10604703;27;19927;-72
2023/04/29 03:24:40;;;;;;;;;;;;;;;8.48;61.45;100704.13;10662744;27;20007;-72
2023/04/29 03:29:43;;;;;;;;;;;;;;;8.05;62.86;100706.06;10622079;27;19923;-72
2023/04/29 03:34:48;;;;;;;;;;;;;;;8.16;62.50;100705.03;10641931;27;19930;-72
2023/04/29 03:40:10;;;;;;;;;;;;;;;7.49;63.95;100702.88;10687917;27;19923;-72
2023/04/29 03:45:14;;;;;;;;;;;;;;;7.50;64.63;100715.44;10645239;27;19954;-72
2023/04/29 03:50:17;;;;;;;;;;;;;;;7.84;63.51;100707.00;10668651;27;19999;-72
2023/04/29 03:55:19;;;;;;;;;;;;;;;7.58;63.82;100711.41;10638948;27;20008;-71
2023/04/29 04:00:25;;;;;;;;;;;;;;;7.37;64.27;100710.41;10637482;27;19935;-71
2023/04/29 04:05:30;;;;;;;;;;;;;;;7.97;62.68;100705.69;10655652;27;19923;-71
2023/04/29 04:10:39;;;;;;;;;;;;;;;8.29;62.76;100708.38;10628328;27;19923;-71
2023/04/29 04:15:52;;;;;;;;;;;;;;;8.82;60.08;100704.56;10644528;27;19923;-72
2023/04/29 04:20:55;;;;;;;;;;;;;;;8.65;59.88;100699.28;10637254;27;19923;-72
2023/04/29 04:25:59;;;;;;;;;;;;;;;6.93;64.23;100709.63;10624752;27;19937;-72
2023/04/29 04:31:32;;;;;;;;;;;;;;;6.10;67.18;100700.66;10620368;27;20300;-73
2023/04/29 04:36:34;;;;;;;;;;;;;;;5.70;69.29;100706.25;10650172;27;19923;-72
2023/04/29 04:41:37;;;;;;;;;;;;;;;5.56;70.35;100705.78;10625384;27;19923;-73
2023/04/29 04:46:41;;;;;;;;;;;;;;;6.68;67.83;100701.16;10642365;27;20013;-73
2023/04/29 04:52:07;;;;;;;;;;;;;;;6.86;67.07;100701.66;10644835;27;19923;-73
2023/04/29 04:57:10;;;;;;;;;;;;;;;7.36;64.49;100706.03;10670290;27;20385;-75
2023/04/29 05:02:14;;;;;;;;;;;;;;;7.50;63.10;100709.16;10663273;27;20571;-72
2023/04/29 05:07:16;;;;;;;;;;;;;;;7.46;62.89;100706.13;10637873;27;21186;-71
2023/04/29 05:12:37;;;;;;;;;;;;;;;7.97;61.98;100701.06;10672671;27;19927;-71
2023/04/29 05:17:42;;;;;;;;;;;;;;;8.82;58.86;100690.88;10673122;27;19938;-71
2023/04/29 05:22:44;;;;;;;;;;;;;;;9.38;57.67;100690.22;10641759;27;19934;-72
2023/04/29 05:27:48;;;;;;;;;;;;;;;9.15;57.42;100697.84;10647045;27;19923;-71
2023/04/29 05:32:53;;;;;;;;;;;;;;;8.41;58.75;100695.38;10665103;27;19968;-71
2023/04/29 05:37:57;;;;;;;;;;;;;;;7.92;60.16;100698.28;10683219;27;19923;-71
2023/04/29 05:43:09;;;;;;;;;;;;;;;8.52;59.68;100699.81;10640530;27;19969;-71
2023/04/29 05:48:12;;;;;;;;;;;;;;;8.75;58.68;100702.09;10637662;27;19931;-71
2023/04/29 05:53:14;;;;;;;;;;;;;;;9.27;57.48;100694.84;10697835;27;19927;-71
2023/04/29 05:58:17;;;;;;;;;;;;;;;9.82;55.46;100691.31;10682368;27;19923;-70
2023/04/29 06:03:21;;;;;;;;;;;;;;;8.98;56.88;100695.31;10663750;27;19923;-71
2023/04/29 06:08:29;;;;;;;;;;;;;;;8.07;59.28;100708.53;10670142;27;19945;-70
2023/04/29 06:13:42;;;;;;;;;;;;;;;7.12;61.59;100718.34;10666293;27;20417;-70
2023/04/29 06:18:45;;;;;;;;;;;;;;;7.10;62.12;100709.56;10681951;27;19923;-71
2023/04/29 06:23:48;;;;;;;;;;;;;;;7.03;62.92;100709.75;10663999;27;20396;-70
2023/04/29 06:28:53;;;;;;;;;;;;;;;7.11;62.50;100716.66;10655684;27;20674;-71
2023/04/29 06:33:55;;;;;;;;;;;;;;;7.28;62.20;100717.38;10672683;27;19923;-71
2023/04/29 06:38:57;;;;;;;;;;;;;;;7.75;60.77;100719.47;10672574;27;19923;-71
2023/04/29 06:44:18;;;;;;;;;;;;;;;7.96;59.57;100715.81;10670576;27;19927;-71
2023/04/29 06:49:46;;;;;;;;;;;;;;;7.49;60.19;100727.44;10663179;27;19923;-71
2023/04/29 06:54:48;;;;;;;;;;;;;;;7.14;61.04;100721.63;10659048;27;20761;-71
2023/04/29 06:59:50;;;;;;;;;;;;;;;7.24;61.00;100724.44;10679108;27;19929;-71
2023/04/29 07:04:53;;;;;;;;;;;;;;;7.37;59.88;100726.78;10657725;27;19930;-72
2023/04/29 07:09:55;;;;;;;;;;;;;;;7.67;59.28;100725.41;10683266;27;19927;-71
2023/04/29 07:14:57;;;;;;;;;;;;;;;7.79;59.66;100732.34;10662243;27;19984;-71
2023/04/29 07:19:59;;;;;;;;;;;;;;;8.31;58.41;100725.34;10645357;27;19944;-71
2023/04/29 07:25:01;;;;;;;;;;;;;;;7.91;59.10;100732.16;10649326;27;19923;-71
2023/04/29 07:30:03;;;;;;;;;;;;;;;7.75;58.54;100736.69;10652822;27;19923;-71
2023/04/29 07:35:06;;;;;;;;;;;;;;;7.54;58.87;100741.13;10662442;27;19937;-71
2023/04/29 07:40:08;;;;;;;;;;;;;;;7.37;59.91;100740.44;10634098;27;19923;-71
2023/04/29 07:45:12;;;;;;;;;;;;;;;7.70;58.26;100744.00;10621334;27;19930;-71
2023/04/29 07:50:15;;;;;;;;;;;;;;;8.02;57.18;100750.31;10641556;27;19934;-71
2023/04/29 07:55:17;;;;;;;;;;;;;;;8.49;55.73;100752.28;10669108;27;19931;-71
2023/04/29 08:00:19;;;;;;;;;;;;;;;7.99;57.39;100791.00;10637849;27;19929;-70
2023/04/29 08:05:22;;;;;;;;;;;;;;;6.18;66.50;100792.88;10638268;27;20305;-71
2023/04/29 08:10:26;;;;;;;;;;;;;;;5.09;72.31;100808.56;10664079;27;19927;-70
2023/04/29 08:15:28;;;;;;;;;;;;;;;4.73;75.17;100823.28;10686968;27;19923;-71
2023/04/29 08:20:31;;;;;;;;;;;;;;;4.54;76.60;100823.41;10680236;27;20324;-71
2023/04/29 08:25:33;;;;;;;;;;;;;;;4.46;77.46;100828.34;10683545;27;20396;-71
2023/04/29 08:30:40;;;;;;;;;;;;;;;4.33;78.94;100820.44;10699448;27;20013;-70
2023/04/29 08:35:43;;;;;;;;;;;;;;;5.62;77.73;100818.28;10658044;27;19930;-72
2023/04/29 08:40:46;;;;;;;;;;;;;;;7.44;73.93;100806.56;10644885;27;20428;-71
2023/04/29 08:45:48;;;;;;;;;;;;;;;7.82;72.08;100810.25;10639970;27;19930;-73
2023/04/29 08:50:50;;;;;;;;;;;;;;;7.79;70.57;100822.47;10680804;27;19923;-73
2023/04/29 08:55:52;;;;;;;;;;;;;;;8.04;70.71;100807.44;10654764;27;20428;-72
2023/04/29 09:00:54;;;;;;;;;;;;;;;8.00;71.05;100817.25;10661608;27;20440;-73
2023/04/29 09:05:58;;;;;;;;;;;;;;;8.34;69.79;100801.41;10627420;27;19923;-73
2023/04/29 09:11:00;;;;;;;;;;;;;;;8.14;69.53;100816.53;10639211;27;19923;-72
2023/04/29 09:16:02;;;;;;;;;;;;;;;7.71;69.40;100819.41;10674885;27;20443;-72
2023/04/29 09:21:12;;;;;;;;;;;;;;;7.47;71.09;100818.91;10667254;27;19927;-72
2023/04/29 09:26:14;;;;;;;;;;;;;;;7.45;73.60;100827.31;10645830;27;20444;-72
2023/04/29 09:31:25;;;;;;;;;;;;;;;7.75;72.15;100834.19;10683970;27;19923;-73
2023/04/29 09:36:36;;;;;;;;;;;;;;;6.61;71.74;100835.78;10676452;27;19923;-72
2023/04/29 09:41:41;;;;;;;;;;;;;;;5.89;73.87;100852.00;10660365;27;20381;-72
2023/04/29 09:46:43;;;;;;;;;;;;;;;5.61;74.90;100855.56;10660691;27;20006;-73
2023/04/29 09:51:50;;;;;;;;;;;;;;;5.55;74.69;100861.97;10674049;27;19927;-74
2023/04/29 09:56:53;;;;;;;;;;;;;;;5.88;72.45;100863.13;10649206;27;19930;-72
2023/04/29 10:01:57;;;;;;;;;;;;;;;5.82;71.82;100872.28;10638547;27;19927;-72
2023/04/29 10:06:59;;;;;;;;;;;;;;;5.74;71.32;100874.34;10666451;27;19923;-73
2023/04/29 10:12:01;;;;;;;;;;;;;;;6.14;71.95;100870.72;10683379;27;20308;-73
2023/04/29 10:17:10;;;;;;;;;;;;;;;6.63;71.19;100873.72;10666116;27;20308;-72
2023/04/29 10:22:16;;;;;;;;;;;;;;;7.15;69.73;100873.38;10696520;27;19923;-72
2023/04/29 10:27:19;;;;;;;;;;;;;;;7.42;68.55;100874.25;10665987;27;20407;-71
2023/04/29 10:32:22;;;;;;;;;;;;;;;7.78;67.20;100877.38;10648903;27;19923;-73
2023/04/29 10:37:24;;;;;;;;;;;;;;;7.90;66.86;100875.34;10661185;27;19930;-73
2023/04/29 10:42:46;;;;;;;;;;;;;;;8.02;65.02;100892.41;10704124;27;19947;-73
2023/04/29 10:48:00;;;;;;;;;;;;;;;7.98;64.92;100890.44;10701210;27;19922;-73
2023/04/29 10:53:02;;;;;;;;;;;;;;;7.94;62.66;100890.13;10693621;27;19923;-73
2023/04/29 10:58:04;;;;;;;;;;;;;;;7.33;62.03;100905.00;10639071;27;19930;-73
2023/04/29 11:03:06;;;;;;;;;;;;;;;7.31;64.87;100905.25;10657555;27;19923;-73
2023/04/29 11:08:11;;;;;;;;;;;;;;;7.29;64.31;100918.31;10621398;27;20392;-73
2023/04/29 11:13:23;;;;;;;;;;;;;;;7.14;64.44;100920.84;10680124;27;20210;-72
2023/04/29 11:18:25;;;;;;;;;;;;;;;6.91;65.19;100930.03;10681082;27;20421;-72
2023/04/29 11:23:27;;;;;;;;;;;;;;;6.96;65.89;100921.94;10663719;27;19922;-73
2023/04/29 11:28:30;;;;;;;;;;;;;;;6.94;65.04;100924.94;10662222;27;19923;-73
2023/04/29 11:33:32;;;;;;;;;;;;;;;6.91;64.09;100932.75;10655805;27;19930;-73
2023/04/29 11:38:35;;;;;;;;;;;;;;;6.91;63.41;100941.75;10637793;27;20315;-73
2023/04/29 11:43:38;;;;;;;;;;;;;;;6.80;64.25;100931.78;10637970;27;19923;-73
2023/04/29 11:48:47;;;;;;;;;;;;;;;6.80;64.41;100939.97;10649797;27;19923;-72
2023/04/29 11:53:50;;;;;;;;;;;;;;;7.08;62.97;100952.66;10661308;27;19923;-72
2023/04/29 11:59:00;;;;;;;;;;;;;;;6.92;62.92;100954.31;10656690;27;19923;-72
2023/04/29 12:04:02;;;;;;;;;;;;;;;6.73;61.91;100949.38;10654804;27;19937;-72
2023/04/29 12:09:04;;;;;;;;;;;;;;;6.68;62.22;100952.88;10654691;27;19923;-73
2023/04/29 12:14:06;;;;;;;;;;;;;;;6.62;62.19;100959.31;10654769;27;19927;-73
2023/04/29 12:19:09;;;;;;;;;;;;;;;6.83;62.38;100955.00;10635932;27;20305;-73
2023/04/29 12:24:11;;;;;;;;;;;;;;;6.77;60.36;100966.91;10645104;27;19927;-73
2023/04/29 12:29:14;;;;;;;;;;;;;;;6.63;61.33;100959.06;10618871;28;19924;-72
2023/04/29 12:34:16;;;;;;;;;;;;;;;6.64;61.73;100962.63;10620323;28;19935;-72
2023/04/29 12:39:18;;;;;;;;;;;;;;;6.61;61.57;100971.28;10620064;28;20349;-72
2023/04/29 12:44:20;;;;;;;;;;;;;;;7.04;60.83;100964.34;10619406;28;19927;-73
2023/04/29 12:49:23;;;;;;;;;;;;;;;7.00;60.98;100966.75;10649655;27;19923;-73
2023/04/29 12:54:25;;;;;;;;;;;;;;;7.00;60.12;100965.91;10641123;27;19927;-73
2023/04/29 12:59:27;;;;;;;;;;;;;;;7.04;59.39;100965.16;10616961;28;19927;-72
2023/04/29 13:04:29;;;;;;;;;;;;;;;6.88;59.89;100968.72;10598462;28;19930;-72
2023/04/29 13:09:31;;;;;;;;;;;;;;;7.08;60.41;100973.66;10618710;28;19924;-73
2023/04/29 13:14:33;;;;;;;;;;;;;;;7.04;60.13;100962.44;10618983;28;19928;-73
2023/04/29 13:19:36;;;;;;;;;;;;;;;7.05;60.84;100975.00;10618855;28;19923;-74
2023/04/29 13:24:38;;;;;;;;;;;;;;;7.43;59.98;100973.34;10618159;27;19968;-73
2023/04/29 13:29:41;;;;;;;;;;;;;;;7.26;60.46;100981.56;10642383;27;19931;-73
2023/04/29 13:34:43;;;;;;;;;;;;;;;7.13;60.70;100979.22;10660818;27;19930;-73
2023/04/29 13:39:45;;;;;;;;;;;;;;;7.23;60.70;100976.63;10642062;27;19930;-73
2023/04/29 13:44:49;;;;;;;;;;;;;;;7.53;60.88;100976.22;10669307;27;19919;-72
2023/04/29 13:49:51;;;;;;;;;;;;;;;7.43;59.90;100973.34;10630067;27;19930;-72
2023/04/29 13:54:53;;;;;;;;;;;;;;;7.52;59.66;100974.59;10650047;27;19923;-72
2023/04/29 13:59:55;;;;;;;;;;;;;;;7.51;59.82;100973.75;10654573;27;19976;-73
2023/04/29 14:04:57;;;;;;;;;;;;;;;7.37;59.46;100975.19;10676133;27;19950;-70
2023/04/29 14:10:00;;;;;;;;;;;;;;;7.44;60.36;100977.72;10681773;27;19934;-70
2023/04/29 14:15:02;;;;;;;;;;;;;;;7.41;60.13;100975.50;10684615;27;19923;-72
2023/04/29 14:20:04;;;;;;;;;;;;;;;7.45;59.23;100974.75;10680478;27;19924;-71
2023/04/29 14:25:07;;;;;;;;;;;;;;;7.40;60.06;100982.88;10668371;27;20379;-72
2023/04/29 14:30:09;;;;;;;;;;;;;;;7.37;60.09;100991.59;10694290;27;19925;-71
2023/04/29 14:35:12;;;;;;;;;;;;;;;7.41;59.98;100995.44;10653294;27;20141;-70
2023/04/29 14:40:13;;;;;;;;;;;;;;;7.65;59.28;100987.88;10610083;27;20389;-71
2023/04/29 14:45:16;;;;;;;;;;;;;;;7.40;58.37;100995.69;10638278;27;19923;-72
2023/04/29 14:50:24;;;;;;;;;;;;;;;7.26;58.71;100990.59;10648654;27;20550;-72
2023/04/29 14:55:26;;;;;;;;;;;;;;;7.25;58.25;100996.31;10684768;27;20482;-72
2023/04/29 15:00:28;;;;;;;;;;;;;;;7.06;57.35;100992.19;10652036;27;19923;-73
2023/04/29 15:05:30;;;;;;;;;;;;;;;7.06;57.73;100992.19;10685116;27;19946;-72
2023/04/29 15:10:32;;;;;;;;;;;;;;;6.97;56.67;100999.16;10711262;27;20033;-72
2023/04/29 15:15:34;;;;;;;;;;;;;;;7.13;56.42;101003.78;10686088;27;19927;-71
2023/04/29 15:20:36;;;;;;;;;;;;;;;7.13;56.13;100999.16;10684585;27;19929;-73
2023/04/29 15:25:39;;;;;;;;;;;;;;;7.03;56.31;101003.63;10675588;27;19933;-73
2023/04/29 15:30:41;;;;;;;;;;;;;;;7.00;56.41;101006.84;10682690;27;19923;-73
2023/04/29 15:35:45;;;;;;;;;;;;;;;6.94;56.61;101000.47;10713470;27;20470;-72
2023/04/29 15:40:47;;;;;;;;;;;;;;;6.92;56.87;101006.16;10718988;27;19922;-72
2023/04/29 15:45:49;;;;;;;;;;;;;;;7.07;56.27;101005.59;10697666;27;19927;-72
2023/04/29 15:50:52;;;;;;;;;;;;;;;6.97;56.21;101010.91;10688006;27;19922;-71
2023/04/29 15:55:54;;;;;;;;;;;;;;;6.79;55.34;101011.97;10682735;27;19937;-71
2023/04/29 16:00:56;;;;;;;;;;;;;;;6.93;55.04;101005.09;10655784;27;19923;-73
2023/04/29 16:05:57;;;;;;;;;;;;;;;7.00;53.92;101015.03;10696341;27;19927;-71
2023/04/29 16:11:00;;;;;;;;;;;;;;;7.08;55.46;101009.13;10680233;27;19930;-72
2023/04/29 16:16:01;;;;;;;;;;;;;;;7.02;53.84;101015.59;10660513;27;20454;-73
2023/04/29 16:21:04;;;;;;;;;;;;;;;6.91;54.82;101012.69;10652596;27;19924;-72
2023/04/29 16:26:06;;;;;;;;;;;;;;;6.95;54.35;101018.50;10640202;27;19924;-73
2023/04/29 16:31:11;;;;;;;;;;;;;;;7.01;54.42;101019.41;10660962;27;19927;-73
2023/04/29 16:36:14;;;;;;;;;;;;;;;6.76;55.82;101033.44;10656285;27;20021;-72
2023/04/29 16:41:17;;;;;;;;;;;;;;;6.53;55.82;101034.41;10678104;27;19927;-72
2023/04/29 16:46:19;;;;;;;;;;;;;;;6.33;57.25;101037.56;10660512;27;19969;-72
2023/04/29 16:51:22;;;;;;;;;;;;;;;6.19;58.09;101037.03;10636511;27;19931;-72
2023/04/29 16:56:24;;;;;;;;;;;;;;;6.29;58.83;101041.84;10636450;28;19924;-72
2023/04/29 17:01:26;;;;;;;;;;;;;;;6.32;58.21;101035.91;10605529;27;19923;-72
2023/04/29 17:06:28;;;;;;;;;;;;;;;6.21;58.43;101040.31;10641728;27;19950;-72
2023/04/29 17:11:30;;;;;;;;;;;;;;;6.11;58.14;101042.03;10641258;27;20014;-72
2023/04/29 17:16:32;;;;;;;;;;;;;;;6.00;58.66;101046.44;10655072;27;19923;-72
2023/04/29 17:21:37;;;;;;;;;;;;;;;6.02;58.56;101042.41;10668057;27;19937;-72
2023/04/29 17:26:39;;;;;;;;;;;;;;;6.17;58.61;101051.97;10699003;27;19937;-72
2023/04/29 17:31:44;;;;;;;;;;;;;;;6.25;58.79;101041.53;10640331;27;19930;-72
2023/04/29 17:36:46;;;;;;;;;;;;;;;6.22;57.99;101041.16;10701573;27;19945;-72
2023/04/29 17:41:48;;;;;;;;;;;;;;;6.24;58.00;101045.28;10667520;27;19933;-72
2023/04/29 17:46:50;;;;;;;;;;;;;;;6.28;57.68;101053.84;10700146;27;19923;-72
2023/04/29 17:51:52;;;;;;;;;;;;;;;6.28;57.46;101053.84;10672192;27;19923;-73
2023/04/29 17:56:55;;;;;;;;;;;;;;;6.30;57.47;101041.63;10640629;27;19923;-73
2023/04/29 18:01:58;;;;;;;;;;;;;;;6.22;56.82;101058.34;10670434;27;19930;-72
2023/04/29 18:07:00;;;;;;;;;;;;;;;6.26;55.72;101059.53;10680397;27;19923;-72
2023/04/29 18:12:02;;;;;;;;;;;;;;;6.13;56.17;101062.53;10669293;27;19923;-72
2023/04/29 18:17:04;;;;;;;;;;;;;;;6.37;55.79;101054.25;10701029;27;19976;-73
2023/04/29 18:22:08;;;;;;;;;;;;;;;6.49;55.30;101053.16;10683090;27;19929;-72
2023/04/29 18:27:10;;;;;;;;;;;;;;;6.30;54.65;101055.25;10681031;27;20412;-72
2023/04/29 18:32:11;;;;;;;;;;;;;;;6.34;55.00;101056.41;10666200;27;19923;-72
2023/04/29 18:37:13;;;;;;;;;;;;;;;6.32;54.09;101047.66;10622786;27;19924;-72
2023/04/29 18:42:15;;;;;;;;;;;;;;;6.39;53.79;101055.66;10638885;27;19923;-72
2023/04/29 18:47:17;;;;;;;;;;;;;;;6.63;52.69;101059.13;10652749;27;19931;-72
2023/04/29 18:52:19;;;;;;;;;;;;;;;6.72;51.14;101063.09;10639077;27;19930;-72
2023/04/29 18:57:21;;;;;;;;;;;;;;;6.69;51.98;101062.78;10628454;27;19929;-71
2023/04/29 19:02:28;;;;;;;;;;;;;;;6.45;50.60;101062.06;10675398;27;20293;-72
2023/04/29 19:07:30;;;;;;;;;;;;;;;6.03;52.23;101063.13;10695188;27;19945;-71
2023/04/29 19:12:32;;;;;;;;;;;;;;;5.98;52.34;101057.59;10692937;27;19968;-70
2023/04/29 19:17:34;;;;;;;;;;;;;;;5.94;53.62;101061.03;10676989;27;20418;-70
2023/04/29 19:22:36;;;;;;;;;;;;;;;6.04;53.91;101061.22;10663897;27;20374;-71
2023/04/29 19:27:47;;;;;;;;;;;;;;;5.97;54.39;101057.81;10651760;27;19934;-71
2023/04/29 19:32:49;;;;;;;;;;;;;;;5.72;54.48;101050.72;10664192;27;20320;-72
2023/04/29 19:37:53;;;;;;;;;;;;;;;5.79;55.54;101050.59;10683297;27;19923;-70
2023/04/29 19:42:55;;;;;;;;;;;;;;;5.80;54.76;101043.25;10681928;27;19930;-71
2023/04/29 19:48:00;;;;;;;;;;;;;;;5.63;54.97;101035.00;10674691;27;19923;-71
2023/04/29 19:53:02;;;;;;;;;;;;;;;5.58;55.65;101037.63;10663697;27;19923;-71
2023/04/29 19:58:05;;;;;;;;;;;;;;;5.59;55.42;101036.56;10652731;27;19931;-70
2023/04/29 20:03:07;;;;;;;;;;;;;;;5.43;54.95;101040.81;10673849;27;19923;-71
2023/04/29 20:08:09;;;;;;;;;;;;;;;5.54;55.47;101030.97;10681994;27;19928;-71
2023/04/29 20:13:11;;;;;;;;;;;;;;;5.46;55.74;101037.63;10670097;27;19990;-71
2023/04/29 20:18:13;;;;;;;;;;;;;;;5.35;56.07;101038.44;10698951;27;20296;-71
2023/04/29 20:23:20;;;;;;;;;;;;;;;5.26;55.35;101032.53;10672742;27;19927;-71
2023/04/29 20:28:22;;;;;;;;;;;;;;;5.15;55.81;101034.19;10664371;27;19923;-73
2023/04/29 20:33:24;;;;;;;;;;;;;;;5.06;55.99;101022.00;10673676;27;20304;-73
2023/04/29 20:38:26;;;;;;;;;;;;;;;5.01;56.31;101023.75;10672559;27;19926;-71
2023/04/29 20:43:28;;;;;;;;;;;;;;;4.99;56.00;101010.41;10667744;27;19929;-72
2023/04/29 20:48:31;;;;;;;;;;;;;;;5.01;56.12;100996.56;10667215;27;19923;-71
2023/04/29 20:53:33;;;;;;;;;;;;;;;4.89;56.45;100999.28;10677493;27;19937;-71
2023/04/29 20:58:35;;;;;;;;;;;;;;;4.89;55.99;100990.31;10699403;27;19923;-71
2023/04/29 21:03:38;;;;;;;;;;;;;;;4.93;56.60;100989.59;10687662;27;19927;-71
2023/04/29 21:08:41;;;;;;;;;;;;;;;4.94;56.30;100980.38;10701094;27;20438;-71
2023/04/29 21:13:48;;;;;;;;;;;;;;;5.07;57.19;100971.97;10703826;27;19930;-70
2023/04/29 21:18:50;;;;;;;;;;;;;;;5.04;56.42;100968.91;10703453;27;20403;-69
2023/04/29 21:23:52;;;;;;;;;;;;;;;5.10;57.21;100960.63;10677638;27;19923;-70
2023/04/29 21:28:54;;;;;;;;;;;;;;;5.06;57.55;100950.47;10678900;27;20299;-70
2023/04/29 21:33:56;;;;;;;;;;;;;;;5.01;57.43;100953.88;10663890;27;19923;-72
2023/04/29 21:38:58;;;;;;;;;;;;;;;4.97;57.72;100949.97;10701420;27;19923;-72
2023/04/29 21:44:00;;;;;;;;;;;;;;;4.95;57.79;100945.84;10672776;27;19934;-72
2023/04/29 21:49:02;;;;;;;;;;;;;;;4.83;57.82;100949.38;10696809;27;19923;-72
2023/04/29 21:54:07;;;;;;;;;;;;;;;4.89;57.92;100949.53;10682067;27;19923;-71
2023/04/29 21:59:09;;;;;;;;;;;;;;;4.83;57.99;100954.00;10706302;27;19923;-71
2023/04/29 22:04:11;;;;;;;;;;;;;;;4.79;58.09;100944.66;10707387;27;19923;-70
2023/04/29 22:09:13;;;;;;;;;;;;;;;4.89;58.46;100949.53;10689793;27;19930;-71
2023/04/29 22:14:15;;;;;;;;;;;;;;;4.79;58.39;100944.66;10663435;27;20397;-70
2023/04/29 22:19:17;;;;;;;;;;;;;;;4.72;58.54;100941.22;10683893;27;19927;-71
2023/04/29 22:24:19;;;;;;;;;;;;;;;4.70;58.00;100916.19;10685280;27;19919;-72
2023/04/29 22:29:21;;;;;;;;;;;;;;;4.65;57.89;100916.88;10681468;27;20395;-73
2023/04/29 22:34:23;;;;;;;;;;;;;;;4.63;57.90;100915.44;10653036;27;19928;-74
2023/04/29 22:39:25;;;;;;;;;;;;;;;4.69;57.65;100900.94;10648665;27;19923;-73
2023/04/29 22:44:28;;;;;;;;;;;;;;;4.56;57.60;100901.16;10622857;27;19923;-73
2023/04/29 22:49:31;;;;;;;;;;;;;;;4.49;57.35;100903.97;10666107;27;19923;-72
2023/04/29 22:54:33;;;;;;;;;;;;;;;4.49;57.55;100901.25;10708607;27;19949;-73
2023/04/29 22:59:35;;;;;;;;;;;;;;;4.48;57.45;100899.59;10708037;27;19934;-72
2023/04/29 23:04:37;;;;;;;;;;;;;;;4.48;57.21;100897.69;10697286;27;20017;-72
2023/04/29 23:09:39;;;;;;;;;;;;;;;4.50;57.15;100892.03;10701609;27;19927;-72
2023/04/29 23:14:41;;;;;;;;;;;;;;;4.54;56.40;100888.63;10689655;27;20009;-71
2023/04/29 23:19:43;;;;;;;;;;;;;;;4.58;56.49;100866.41;10699261;27;20381;-72
2023/04/29 23:24:45;;;;;;;;;;;;;;;4.56;56.06;100869.38;10665920;27;19930;-72
2023/04/29 23:29:47;;;;;;;;;;;;;;;4.53;56.01;100865.25;10663701;27;19975;-71
2023/04/29 23:34:49;;;;;;;;;;;;;;;4.63;56.53;100863.81;10639474;27;19930;-72
2023/04/29 23:39:51;;;;;;;;;;;;;;;4.67;55.79;100859.53;10655459;27;19930;-72
2023/04/29 23:44:53;;;;;;;;;;;;;;;4.67;55.13;100860.38;10669168;27;20304;-72
2023/04/29 23:49:55;;;;;;;;;;;;;;;4.77;54.56;100855.19;10691469;27;19923;-72
2023/04/29 23:54:57;;;;;;;;;;;;;;;4.81;54.67;100853.63;10649542;27;20397;-72
